createdAt,value
2019-05-19T00:01:49.316Z,5.73
2019-05-19T00:04:16.442Z,6.20
2019-05-19T00:06:45.793Z,6.47
2019-05-19T00:09:16.026Z,6.40
2019-05-19T00:11:41.917Z,6.70
2019-05-19T00:14:09.163Z,6.55
2019-05-19T00:16:36.320Z,6.60
2019-05-19T00:19:03.850Z,7.08
2019-05-19T00:21:31.349Z,8.13
2019-05-19T00:23:59.878Z,9.18
2019-05-19T00:26:27.161Z,6.85
2019-05-19T00:28:54.106Z,6.40
2019-05-19T00:31:21.252Z,6.87
2019-05-19T00:33:48.179Z,7.00
2019-05-19T00:36:15.753Z,6.57
2019-05-19T00:38:42.890Z,7.07
2019-05-19T00:41:11.605Z,6.80
2019-05-19T00:43:40.168Z,7.22
2019-05-19T00:46:07.400Z,7.25
2019-05-19T00:48:35.004Z,7.30
2019-05-19T00:51:02.341Z,7.10
2019-05-19T00:53:30.908Z,7.05
2019-05-19T00:55:58.907Z,7.03
2019-05-19T00:58:26.349Z,7.27
2019-05-19T01:00:53.912Z,6.75
2019-05-19T01:03:21.047Z,7.03
2019-05-19T01:05:48.311Z,7.28
2019-05-19T01:08:15.447Z,7.45
2019-05-19T01:10:43.237Z,7.17
2019-05-19T01:13:10.552Z,6.97
2019-05-19T01:15:38.217Z,7.30
2019-05-19T01:18:05.923Z,7.40
2019-05-19T01:20:33.353Z,6.87
2019-05-19T01:23:01.399Z,7.62
2019-05-19T01:25:28.653Z,7.62
2019-05-19T01:27:56.169Z,6.90
2019-05-19T01:30:23.569Z,7.28
2019-05-19T01:32:50.738Z,7.22
2019-05-19T01:35:18.307Z,7.60
2019-05-19T01:37:45.445Z,7.65
2019-05-19T01:40:13.932Z,8.15
2019-05-19T01:42:42.987Z,8.53
2019-05-19T01:45:10.312Z,7.87
2019-05-19T01:47:37.495Z,8.93
2019-05-19T01:50:16.883Z,8.30
2019-05-19T01:52:34.078Z,8.10
2019-05-19T01:55:01.648Z,8.28
2019-05-19T01:57:28.783Z,8.30
2019-05-19T01:59:55.787Z,8.10
2019-05-19T02:02:22.950Z,8.60
2019-05-19T02:04:50.157Z,8.28
2019-05-19T02:07:17.352Z,8.40
2019-05-19T02:09:44.705Z,8.05
2019-05-19T02:12:13.326Z,8.50
2019-05-19T02:14:40.340Z,8.58
2019-05-19T02:17:07.532Z,8.20
2019-05-19T02:19:34.745Z,7.60
2019-05-19T02:22:02.129Z,7.87
2019-05-19T02:24:29.280Z,8.35
2019-05-19T02:26:57.421Z,8.20
2019-05-19T02:29:24.597Z,7.80
2019-05-19T02:31:52.232Z,8.38
2019-05-19T02:34:21.121Z,8.00
2019-05-19T02:36:48.573Z,8.00
2019-05-19T02:39:16.145Z,7.92
2019-05-19T02:41:44.977Z,7.95
2019-05-19T02:44:14.028Z,8.65
2019-05-19T02:46:41.297Z,8.80
2019-05-19T02:49:09.444Z,9.05
2019-05-19T02:51:37.400Z,10.28
2019-05-19T02:54:05.213Z,10.20
2019-05-19T02:56:32.740Z,9.60
2019-05-19T02:59:00.328Z,9.43
2019-05-19T03:01:27.957Z,9.53
2019-05-19T03:03:55.241Z,10.30
2019-05-19T03:06:22.398Z,11.12
2019-05-19T03:08:49.646Z,11.22
2019-05-19T03:11:19.013Z,10.35
2019-05-19T03:13:46.384Z,10.10
2019-05-19T03:16:13.548Z,11.53
2019-05-19T03:18:40.687Z,11.43
2019-05-19T03:21:11.565Z,10.68
2019-05-19T03:23:38.218Z,10.53
2019-05-19T03:26:05.225Z,10.90
2019-05-19T03:28:32.441Z,10.32
2019-05-19T03:31:18.889Z,9.70
2019-05-19T03:33:47.659Z,10.63
2019-05-19T03:36:15.014Z,11.03
2019-05-19T03:38:42.237Z,11.35
2019-05-19T03:41:09.543Z,11.12
2019-05-19T03:43:36.872Z,10.35
2019-05-19T03:46:03.937Z,10.38
2019-05-19T03:48:31.495Z,10.60
2019-05-19T03:50:58.692Z,10.40
2019-05-19T03:53:27.267Z,10.00
2019-05-19T03:55:54.566Z,9.70
2019-05-19T03:58:21.733Z,9.40
2019-05-19T04:00:49.207Z,9.03
2019-05-19T04:03:16.286Z,9.08
2019-05-19T04:05:45.090Z,9.23
2019-05-19T04:08:12.143Z,8.95
2019-05-19T04:10:39.775Z,10.05
2019-05-19T04:13:06.965Z,9.83
2019-05-19T04:15:33.927Z,10.20
2019-05-19T04:18:01.263Z,8.78
2019-05-19T04:20:28.805Z,8.00
2019-05-19T04:22:57.564Z,8.33
2019-05-19T04:25:24.964Z,9.20
2019-05-19T04:27:51.913Z,9.25
2019-05-19T04:30:19.049Z,8.93
2019-05-19T04:32:46.191Z,9.00
2019-05-19T04:35:13.499Z,8.90
2019-05-19T04:37:40.636Z,8.20
2019-05-19T04:40:07.944Z,8.58
2019-05-19T04:42:35.116Z,8.43
2019-05-19T04:45:02.792Z,7.80
2019-05-19T04:47:30.930Z,7.40
2019-05-19T04:49:58.817Z,7.30
2019-05-19T04:52:26.185Z,6.85
2019-05-19T04:54:53.437Z,6.70
2019-05-19T04:57:20.668Z,6.87
2019-05-19T04:59:48.108Z,7.05
2019-05-19T05:02:15.365Z,6.72
2019-05-19T05:04:42.850Z,6.92
2019-05-19T05:07:10.006Z,6.72
2019-05-19T05:09:37.053Z,7.20
2019-05-19T05:12:04.601Z,6.85
2019-05-19T05:14:31.825Z,6.65
2019-05-19T05:16:59.005Z,7.30
2019-05-19T05:19:25.899Z,7.30
2019-05-19T05:21:55.324Z,7.45
2019-05-19T05:24:23.211Z,7.22
2019-05-19T05:26:50.757Z,7.40
2019-05-19T05:29:17.692Z,7.70
2019-05-19T05:31:44.775Z,7.70
2019-05-19T05:34:12.020Z,7.67
2019-05-19T05:36:39.231Z,7.83
2019-05-19T05:39:06.489Z,9.10
2019-05-19T05:41:35.059Z,9.03
2019-05-19T05:44:02.373Z,8.50
2019-05-19T05:46:29.924Z,8.98
2019-05-19T05:48:57.152Z,8.43
2019-05-19T05:51:24.546Z,9.25
2019-05-19T05:53:51.758Z,9.30
2019-05-19T05:56:18.880Z,9.53
2019-05-19T05:58:46.079Z,9.48
2019-05-19T06:01:13.590Z,9.15
2019-05-19T06:03:40.785Z,9.43
2019-05-19T06:06:08.018Z,9.43
2019-05-19T06:08:35.048Z,9.28
2019-05-19T06:11:03.037Z,9.73
2019-05-19T06:13:30.161Z,9.50
2019-05-19T06:15:57.661Z,9.70
2019-05-19T06:18:24.861Z,9.63
2019-05-19T06:20:52.053Z,9.90
2019-05-19T06:23:20.135Z,9.73
2019-05-19T06:25:47.337Z,10.05
2019-05-19T06:28:14.519Z,9.43
2019-05-19T06:30:41.748Z,9.33
2019-05-19T06:33:10.318Z,9.50
2019-05-19T06:35:37.733Z,9.88
2019-05-19T06:38:05.141Z,9.70
2019-05-19T06:40:32.312Z,9.55
2019-05-19T06:42:59.655Z,9.53
2019-05-19T06:45:26.956Z,9.80
2019-05-19T06:47:54.651Z,9.93
2019-05-19T06:50:21.807Z,9.75
2019-05-19T06:52:48.799Z,9.53
2019-05-19T06:55:16.405Z,10.10
2019-05-19T06:57:43.710Z,9.90
2019-05-19T07:00:12.849Z,10.23
2019-05-19T07:02:40.013Z,9.83
2019-05-19T07:05:07.134Z,9.80
2019-05-19T07:07:34.412Z,10.00
2019-05-19T07:10:01.899Z,10.20
2019-05-19T07:12:29.122Z,10.13
2019-05-19T07:14:56.789Z,10.08
2019-05-19T07:17:23.862Z,10.05
2019-05-19T07:19:51.488Z,9.95
2019-05-19T07:22:18.668Z,9.78
2019-05-19T07:24:46.543Z,10.15
2019-05-19T07:27:14.120Z,10.13
2019-05-19T07:29:42.341Z,9.40
2019-05-19T07:32:10.051Z,9.95
2019-05-19T07:34:37.155Z,9.80
2019-05-19T07:37:06.195Z,10.15
2019-05-19T07:39:33.286Z,10.50
2019-05-19T07:42:01.290Z,10.05
2019-05-19T07:44:29.198Z,10.60
2019-05-19T07:46:57.590Z,10.72
2019-05-19T07:49:24.557Z,10.75
2019-05-19T07:51:51.460Z,10.03
2019-05-19T07:54:20.088Z,10.35
2019-05-19T07:56:47.162Z,10.58
2019-05-19T07:59:16.187Z,10.85
2019-05-19T08:09:03.664Z,9.35
2019-05-19T08:11:30.874Z,9.05
2019-05-19T08:13:58.607Z,9.88
2019-05-19T08:16:26.100Z,9.25
2019-05-19T08:18:53.348Z,8.70
2019-05-19T08:21:20.963Z,9.78
2019-05-19T08:23:59.707Z,9.70
2019-05-19T08:28:51.996Z,9.40
2019-05-19T08:31:19.528Z,9.28
2019-05-19T08:33:46.804Z,8.85
2019-05-19T08:36:13.819Z,8.93
2019-05-19T08:38:41.492Z,9.93
2019-05-19T08:41:08.676Z,9.90
2019-05-19T08:43:35.917Z,9.48
2019-05-19T08:46:03.114Z,10.72
2019-05-19T08:48:30.169Z,9.83
2019-05-19T08:50:57.353Z,9.68
2019-05-19T08:53:24.719Z,10.90
2019-05-19T09:05:37.498Z,8.88
2019-05-19T09:08:05.886Z,10.68
2019-05-19T09:10:32.963Z,10.18
2019-05-19T09:13:00.077Z,9.68
2019-05-19T09:15:27.676Z,9.90
2019-05-19T09:17:55.147Z,9.38
2019-05-19T09:20:22.593Z,8.95
2019-05-19T09:22:50.110Z,9.15
2019-05-19T09:25:17.911Z,9.58
2019-05-19T09:27:45.513Z,9.40
2019-05-19T09:30:12.632Z,9.08
2019-05-19T09:32:42.649Z,9.48
2019-05-19T09:35:11.487Z,9.68
2019-05-19T09:37:38.748Z,9.10
2019-05-19T09:40:06.249Z,10.10
2019-05-19T09:42:33.479Z,9.40
2019-05-19T09:45:01.051Z,9.83
2019-05-19T10:14:48.781Z,8.93
2019-05-19T10:17:16.993Z,9.28
2019-05-19T10:19:43.969Z,9.38
2019-05-19T10:22:10.961Z,9.05
2019-05-19T10:24:38.680Z,10.15
2019-05-19T10:29:32.676Z,8.45
2019-05-19T10:31:59.840Z,8.70
2019-05-19T10:34:28.015Z,8.38
2019-05-19T10:39:21.518Z,6.65
2019-05-19T10:46:41.429Z,6.53
2019-05-19T10:49:09.061Z,7.35
2019-05-19T10:51:38.185Z,8.05
2019-05-19T10:54:05.512Z,8.45
2019-05-19T10:56:34.296Z,8.90
2019-05-19T10:59:02.006Z,8.18
2019-05-19T11:01:29.197Z,8.20
2019-05-19T11:03:57.552Z,6.35
2019-05-19T11:08:51.300Z,6.85
2019-05-19T11:11:18.852Z,7.20
2019-05-19T11:13:46.559Z,6.90
2019-05-19T11:16:14.588Z,7.12
2019-05-19T11:18:42.088Z,6.60
2019-05-19T11:21:09.668Z,6.85
2019-05-19T11:28:29.501Z,6.35
2019-05-19T11:30:57.010Z,6.92
2019-05-19T11:40:45.056Z,5.08
2019-05-19T11:43:11.924Z,5.12
2019-05-19T12:05:12.775Z,4.60
2019-05-19T12:07:40.783Z,4.72
2019-05-19T12:10:07.859Z,5.20
2019-05-19T12:12:35.050Z,5.30
2019-05-19T12:27:18.034Z,5.60
2019-05-19T12:29:45.919Z,5.70
2019-05-19T12:56:46.109Z,3.10
2019-05-19T12:59:14.593Z,3.85
2019-05-19T13:39:31.194Z,2.72
2019-05-19T13:41:58.279Z,3.10
2019-05-19T13:54:12.341Z,2.37
2019-05-19T14:13:44.371Z,2.08
2019-05-19T14:16:11.873Z,2.20
2019-05-19T14:18:39.233Z,2.30
2019-05-19T14:21:06.313Z,2.05
2019-05-19T14:23:33.968Z,2.33
2019-05-19T14:26:02.321Z,2.58
2019-05-19T14:28:29.440Z,2.70
2019-05-19T14:30:57.464Z,2.42
2019-05-19T14:33:25.125Z,2.27
2019-05-19T14:35:52.136Z,3.27
2019-05-19T14:38:19.340Z,2.05
2019-05-19T14:40:46.547Z,1.90
2019-05-19T14:43:13.927Z,2.20
2019-05-19T14:45:41.017Z,2.00
2019-05-19T14:48:08.312Z,2.10
2019-05-19T14:50:35.886Z,2.20
2019-05-19T14:53:03.057Z,1.98
2019-05-19T14:55:30.268Z,2.70
2019-05-19T14:57:57.497Z,2.15
2019-05-19T15:00:24.691Z,2.08
2019-05-19T15:02:52.919Z,1.50
2019-05-19T15:05:20.393Z,1.62
2019-05-19T15:07:47.561Z,2.05
2019-05-19T15:10:17.099Z,1.90
2019-05-19T15:12:44.223Z,2.23
2019-05-19T15:15:12.165Z,2.02
2019-05-19T15:17:39.351Z,2.00
2019-05-19T15:20:06.981Z,2.02
2019-05-19T15:22:34.424Z,2.12
2019-05-19T15:25:02.498Z,2.17
2019-05-19T15:27:29.988Z,2.12
2019-05-19T15:30:11.837Z,1.92
2019-05-19T15:32:26.129Z,1.87
2019-05-19T15:34:58.589Z,1.98
2019-05-19T15:37:25.727Z,2.10
2019-05-19T15:39:52.788Z,2.40
2019-05-19T15:42:20.092Z,2.50
2019-05-19T15:44:47.173Z,2.02
2019-05-19T15:47:14.262Z,2.05
2019-05-19T15:49:42.379Z,2.92
2019-05-19T15:52:09.580Z,2.98
2019-05-19T15:54:37.023Z,2.60
2019-05-19T15:57:04.181Z,2.87
2019-05-19T15:59:31.652Z,2.80
2019-05-19T16:04:27.138Z,3.50
2019-05-19T16:06:54.230Z,3.50
2019-05-19T16:09:24.733Z,4.10
2019-05-19T16:26:34.080Z,3.05
2019-05-19T16:29:01.458Z,3.60
2019-05-19T16:31:28.684Z,4.12
2019-05-19T16:33:57.399Z,3.30
2019-05-19T16:43:46.984Z,3.47
2019-05-19T16:46:14.237Z,3.83
2019-05-19T16:48:41.396Z,11.38
2019-05-19T16:51:08.744Z,8.00
2019-05-19T16:53:35.966Z,6.67
2019-05-19T16:56:03.169Z,5.25
2019-05-19T16:58:44.112Z,4.22
2019-05-19T18:02:16.088Z,5.33
2019-05-19T18:04:43.691Z,5.53
2019-05-19T18:07:11.155Z,5.37
2019-05-19T18:09:38.685Z,5.17
2019-05-19T18:12:06.579Z,5.33
2019-05-19T18:14:33.819Z,5.05
2019-05-19T18:17:01.431Z,4.90
2019-05-19T18:19:28.296Z,5.28
2019-05-19T19:23:01.146Z,3.47
2019-05-19T19:25:28.817Z,4.40
2019-05-19T19:27:55.729Z,4.87
2019-05-19T19:30:26.119Z,4.73
2019-05-19T19:32:52.609Z,4.17
2019-05-19T19:35:21.416Z,4.37
2019-05-19T19:37:48.257Z,4.55
2019-05-19T19:40:17.130Z,4.50
2019-05-19T19:42:44.664Z,4.78
2019-05-19T19:45:12.134Z,4.60
2019-05-19T19:47:39.150Z,4.70
2019-05-19T19:50:06.227Z,4.20
2019-05-19T19:52:33.404Z,4.22
2019-05-19T19:55:00.938Z,4.25
2019-05-19T19:57:28.128Z,4.37
2019-05-19T19:59:55.247Z,4.30
2019-05-19T20:02:22.267Z,3.87
2019-05-19T20:04:50.686Z,3.90
2019-05-19T20:07:17.606Z,3.72
2019-05-19T20:09:44.802Z,4.00
2019-05-19T20:12:11.813Z,3.80
2019-05-19T20:14:38.980Z,4.12
2019-05-19T20:17:07.341Z,4.53
2019-05-19T20:19:35.344Z,4.30
2019-05-19T20:22:04.789Z,4.67
2019-05-19T20:24:33.914Z,4.30
2019-05-19T20:27:02.636Z,4.05
2019-05-19T20:29:32.166Z,4.33
2019-05-19T20:32:01.195Z,4.50
2019-05-19T20:34:29.380Z,4.40
2019-05-19T20:36:57.064Z,4.40
2019-05-19T20:39:25.075Z,4.90
2019-05-19T20:41:52.589Z,5.17
2019-05-19T20:44:20.263Z,5.58
2019-05-19T20:46:47.492Z,5.30
2019-05-19T20:49:14.800Z,5.30
2019-05-19T20:51:41.984Z,5.03
2019-05-19T20:54:09.110Z,5.17
2019-05-19T20:56:36.982Z,5.60
2019-05-19T20:59:04.152Z,6.10
2019-05-19T21:01:31.716Z,6.00
2019-05-19T21:04:01.066Z,6.08
2019-05-19T21:06:28.166Z,6.37
2019-05-19T21:08:55.706Z,6.77
2019-05-19T21:11:23.595Z,6.60
2019-05-19T21:13:51.476Z,7.33
2019-05-19T21:16:18.903Z,7.50
2019-05-19T21:18:46.434Z,7.80
2019-05-19T21:21:13.618Z,7.92
2019-05-19T21:23:40.761Z,7.30
2019-05-19T21:26:08.853Z,7.45
2019-05-19T21:28:36.102Z,7.67
2019-05-19T21:31:05.708Z,7.58
2019-05-19T21:33:32.294Z,8.03
2019-05-19T21:35:59.696Z,8.65
2019-05-19T21:38:27.376Z,8.10
2019-05-19T21:40:55.184Z,8.45
2019-05-19T21:43:22.977Z,8.80
2019-05-19T21:45:50.907Z,8.80
2019-05-19T21:48:21.017Z,9.03
2019-05-19T21:50:49.680Z,9.28
2019-05-19T21:53:17.260Z,9.28
2019-05-19T21:55:44.691Z,9.88
2019-05-19T21:58:11.916Z,10.37
2019-05-19T22:00:39.252Z,10.05
2019-05-19T22:03:06.418Z,10.00
2019-05-19T22:05:33.672Z,10.18
2019-05-19T22:08:07.544Z,10.45
2019-05-19T22:10:34.727Z,9.93
2019-05-19T22:13:02.767Z,10.45
2019-05-19T22:15:29.868Z,10.70
2019-05-19T22:17:56.990Z,11.30
2019-05-19T22:20:24.455Z,11.12
2019-05-19T22:22:51.783Z,11.12
2019-05-19T22:25:20.789Z,11.15
2019-05-19T22:27:48.173Z,11.30
2019-05-19T22:30:15.782Z,11.48
2019-05-19T22:32:43.043Z,11.35
2019-05-19T22:35:12.063Z,11.68
2019-05-19T22:37:39.173Z,12.05
2019-05-19T22:40:07.467Z,11.78
2019-05-19T22:42:36.844Z,12.27
2019-05-19T22:45:04.763Z,12.28
2019-05-19T22:47:31.693Z,12.40
2019-05-19T22:49:58.735Z,12.28
2019-05-19T22:52:25.888Z,12.47
2019-05-19T22:54:52.937Z,12.90
2019-05-19T22:57:21.690Z,13.07
2019-05-19T22:59:50.874Z,12.35
2019-05-19T23:02:17.832Z,12.10
2019-05-19T23:04:45.431Z,12.28
2019-05-19T23:07:12.973Z,11.70
2019-05-19T23:09:40.018Z,11.33
2019-05-19T23:12:07.213Z,12.00
2019-05-19T23:14:34.320Z,12.23
2019-05-19T23:17:01.924Z,12.40
2019-05-19T23:19:30.708Z,12.30
2019-05-19T23:21:57.795Z,13.30
2019-05-19T23:24:24.811Z,12.90
2019-05-19T23:26:52.004Z,13.00
2019-05-19T23:29:20.079Z,12.47
2019-05-19T23:31:47.213Z,12.47
2019-05-19T23:34:14.264Z,12.10
2019-05-19T23:36:43.118Z,11.60
2019-05-19T23:39:10.028Z,11.88
2019-05-19T23:41:37.096Z,12.75
2019-05-19T23:44:04.973Z,12.13
2019-05-19T23:46:32.296Z,12.37
2019-05-19T23:48:59.311Z,13.10
2019-05-19T23:51:26.400Z,12.73
2019-05-19T23:53:53.648Z,13.03
2019-05-19T23:56:20.863Z,13.98
2019-05-19T23:58:49.192Z,13.48
